createdAt,value
2018-12-01T00:02:28.496Z,100293.84
2018-12-01T00:06:31.986Z,100291.25
2018-12-01T00:10:35.467Z,100288.39
2018-12-01T00:14:38.941Z,100292.18
2018-12-01T00:18:42.487Z,100289.03
2018-12-01T00:22:46.022Z,100293.47
2018-12-01T00:26:49.569Z,100289.13
2018-12-01T00:30:53.084Z,100292.50
2018-12-01T00:34:56.596Z,100291.53
2018-12-01T00:39:00.141Z,100288.67
2018-12-01T00:43:03.640Z,100281.74
2018-12-01T00:47:07.123Z,100273.81
2018-12-01T00:51:10.629Z,100286.91
2018-12-01T00:55:16.037Z,100284.46
2018-12-01T00:59:19.632Z,100280.67
2018-12-01T01:03:23.129Z,100275.10
2018-12-01T01:07:26.675Z,100270.72
2018-12-01T01:11:30.249Z,100271.64
2018-12-01T01:15:33.739Z,100266.84
2018-12-01T01:19:37.298Z,100263.52
2018-12-01T01:23:40.811Z,100259.46
2018-12-01T01:27:44.404Z,100256.37
2018-12-01T01:31:47.902Z,100253.46
2018-12-01T01:35:51.478Z,100255.68
2018-12-01T01:39:55.019Z,100253.41
2018-12-01T01:43:58.559Z,100248.25
2018-12-01T01:48:02.136Z,100240.50
2018-12-01T01:52:06.030Z,100239.20
2018-12-01T01:56:09.467Z,100232.28
2018-12-01T02:00:17.876Z,100232.94
2018-12-01T02:04:21.356Z,100233.27
2018-12-01T02:08:24.986Z,100232.16
2018-12-01T02:12:28.445Z,100223.70
2018-12-01T02:16:31.925Z,100226.38
2018-12-01T02:20:35.499Z,100232.61
2018-12-01T02:24:38.999Z,100227.39
2018-12-01T02:28:42.564Z,100227.21
2018-12-01T02:32:46.177Z,100229.97
2018-12-01T02:36:49.655Z,100227.16
2018-12-01T02:40:53.196Z,100223.84
2018-12-01T02:45:08.429Z,100218.16
2018-12-01T02:49:11.857Z,100211.50
2018-12-01T02:53:15.397Z,100212.20
2018-12-01T02:57:18.857Z,100223.84
2018-12-01T03:01:22.425Z,100220.55
2018-12-01T03:05:26.019Z,100228.16
2018-12-01T03:09:29.600Z,100221.98
2018-12-01T03:13:33.089Z,100227.71
2018-12-01T03:17:36.554Z,100225.12
2018-12-01T03:21:40.053Z,100223.19
2018-12-01T03:25:43.532Z,100226.45
2018-12-01T03:29:47.024Z,100223.04
2018-12-01T03:33:50.514Z,100217.96
2018-12-01T03:37:54.038Z,100223.22
2018-12-01T03:41:57.676Z,100225.58
2018-12-01T03:46:01.181Z,100230.09
2018-12-01T03:50:05.488Z,100228.39
2018-12-01T03:54:09.314Z,100230.89
2018-12-01T03:58:12.852Z,100229.36
2018-12-01T04:02:16.343Z,100233.41
2018-12-01T04:06:19.907Z,100232.30
2018-12-01T04:10:23.398Z,100227.77
2018-12-01T04:14:26.909Z,100226.69
2018-12-01T04:18:30.459Z,100222.52
2018-12-01T04:22:34.046Z,100226.86
2018-12-01T04:26:37.540Z,100224.60
2018-12-01T04:30:41.079Z,100231.47
2018-12-01T04:34:44.622Z,100233.97
2018-12-01T04:38:48.130Z,100239.70
2018-12-01T04:42:51.687Z,100249.52
2018-12-01T04:46:55.196Z,100247.07
2018-12-01T04:50:58.710Z,100246.75
2018-12-01T04:55:02.241Z,100255.44
2018-12-01T04:59:05.741Z,100261.67
2018-12-01T05:03:09.262Z,100271.18
2018-12-01T05:07:12.735Z,100269.51
2018-12-01T05:11:16.221Z,100261.98
2018-12-01T05:15:20.094Z,100269.42
2018-12-01T05:19:23.591Z,100266.55
2018-12-01T05:23:27.090Z,100262.81
2018-12-01T05:27:30.625Z,100269.78
2018-12-01T05:31:34.164Z,100271.54
2018-12-01T05:35:38.183Z,100275.22
2018-12-01T05:39:41.704Z,100275.27
2018-12-01T05:43:45.332Z,100277.48
2018-12-01T05:47:48.871Z,100274.48
2018-12-01T05:51:52.382Z,100277.66
2018-12-01T05:55:55.912Z,100286.47
2018-12-01T05:59:59.380Z,100287.91
2018-12-01T06:04:02.881Z,100285.33
2018-12-01T06:08:07.302Z,100288.70
2018-12-01T06:12:10.838Z,100299.78
2018-12-01T06:16:14.410Z,100291.70
2018-12-01T06:20:21.102Z,100297.48
2018-12-01T06:24:24.831Z,100297.48
2018-12-01T06:28:28.356Z,100293.52
2018-12-01T06:32:31.883Z,100302.36
2018-12-01T06:36:35.337Z,100315.67
2018-12-01T06:40:38.856Z,100315.29
2018-12-01T06:44:42.325Z,100316.96
2018-12-01T06:48:46.539Z,100317.69
2018-12-01T06:52:50.438Z,100318.86
2018-12-01T06:56:53.972Z,100317.88
2018-12-01T07:00:57.509Z,100330.81
2018-12-01T07:05:01.096Z,100336.53
2018-12-01T07:09:07.464Z,100333.91
2018-12-01T07:13:10.903Z,100338.05
2018-12-01T07:17:14.961Z,100347.20
2018-12-01T07:21:18.481Z,100352.69
2018-12-01T07:25:22.079Z,100351.48
2018-12-01T07:29:25.575Z,100349.05
2018-12-01T07:33:29.079Z,100351.25
2018-12-01T07:37:32.588Z,100354.31
2018-12-01T07:41:36.042Z,100353.52
2018-12-01T07:45:39.584Z,100357.22
2018-12-01T07:49:43.057Z,100356.06
2018-12-01T07:53:46.552Z,100352.09
2018-12-01T07:57:50.082Z,100353.48
2018-12-01T08:01:53.614Z,100355.22
2018-12-01T08:05:57.120Z,100358.64
2018-12-01T08:10:00.639Z,100368.20
2018-12-01T08:14:04.084Z,100365.65
2018-12-01T08:18:07.776Z,100371.05
2018-12-01T08:22:11.282Z,100370.03
2018-12-01T08:26:15.096Z,100371.00
2018-12-01T08:30:30.723Z,100371.09
2018-12-01T08:34:34.227Z,100380.70
2018-12-01T08:38:37.701Z,100380.38
2018-12-01T08:42:41.193Z,100379.50
2018-12-01T08:46:44.713Z,100382.27
2018-12-01T08:50:48.273Z,100390.17
2018-12-01T08:54:51.740Z,100393.99
2018-12-01T08:58:55.288Z,100389.49
2018-12-01T09:03:01.216Z,100396.41
2018-12-01T09:07:04.692Z,100398.84
2018-12-01T09:11:08.253Z,100400.77
2018-12-01T09:15:12.631Z,100406.70
2018-12-01T09:19:16.085Z,100404.81
2018-12-01T09:23:19.559Z,100403.10
2018-12-01T09:27:23.063Z,100403.36
2018-12-01T09:31:26.655Z,100406.22
2018-12-01T09:35:30.629Z,100405.73
2018-12-01T09:39:34.155Z,100400.31
2018-12-01T09:43:37.644Z,100391.73
2018-12-01T09:47:41.838Z,100386.39
2018-12-01T09:51:45.365Z,100389.16
2018-12-01T09:55:49.165Z,100387.53
2018-12-01T09:59:52.634Z,100380.09
2018-12-01T10:03:56.167Z,100385.36
2018-12-01T10:07:59.722Z,100392.87
2018-12-01T10:12:03.226Z,100384.80
2018-12-01T10:16:07.140Z,100375.89
2018-12-01T10:20:12.197Z,100383.97
2018-12-01T10:24:15.691Z,100385.64
2018-12-01T10:28:19.172Z,100383.31
2018-12-01T10:32:22.654Z,100382.50
2018-12-01T10:36:26.166Z,100382.00
2018-12-01T10:40:29.677Z,100380.88
2018-12-01T10:44:33.160Z,100374.58
2018-12-01T10:48:36.755Z,100370.70
2018-12-01T10:52:40.704Z,100367.30
2018-12-01T10:56:44.144Z,100369.73
2018-12-01T11:00:54.024Z,100366.98
2018-12-01T11:04:57.567Z,100360.67
2018-12-01T11:09:01.128Z,100363.42
2018-12-01T11:13:04.683Z,100372.82
2018-12-01T11:17:08.144Z,100371.28
2018-12-01T11:21:11.633Z,100374.33
2018-12-01T11:25:15.146Z,100377.84
2018-12-01T11:29:18.653Z,100377.67
2018-12-01T11:33:22.127Z,100378.63
2018-12-01T11:37:25.631Z,100367.39
2018-12-01T11:41:29.135Z,100365.20
2018-12-01T11:45:32.645Z,100363.41
2018-12-01T11:49:36.111Z,100363.33
2018-12-01T11:53:39.600Z,100374.68
2018-12-01T11:57:43.118Z,100370.04
2018-12-01T12:01:46.607Z,100360.98
2018-12-01T12:05:50.092Z,100369.08
2018-12-01T12:09:53.689Z,100376.53
2018-12-01T12:13:57.526Z,100377.02
2018-12-01T12:18:02.794Z,100372.06
2018-12-01T12:22:06.375Z,100373.95
2018-12-01T12:26:10.197Z,100374.91
2018-12-01T12:30:15.854Z,100376.37
2018-12-01T12:34:19.323Z,100382.52
2018-12-01T12:38:22.772Z,100379.93
2018-12-01T12:42:26.331Z,100368.69
2018-12-01T12:46:29.849Z,100381.06
2018-12-01T12:50:33.305Z,100367.64
2018-12-01T12:54:36.903Z,100373.34
2018-12-01T12:58:41.000Z,100373.84
2018-12-01T13:02:49.829Z,100364.52
2018-12-01T13:06:53.372Z,100377.23
2018-12-01T13:10:56.875Z,100376.85
2018-12-01T13:15:00.374Z,100372.88
2018-12-01T13:19:04.958Z,100379.91
2018-12-01T13:23:08.846Z,100382.66
2018-12-01T13:27:12.317Z,100385.75
2018-12-01T13:31:15.832Z,100375.55
2018-12-01T13:35:19.400Z,100380.57
2018-12-01T13:39:22.879Z,100379.44
2018-12-01T13:43:26.371Z,100376.69
2018-12-01T13:47:29.811Z,100379.11
2018-12-01T13:51:33.643Z,100378.78
2018-12-01T13:55:37.204Z,100379.69
2018-12-01T13:59:45.556Z,100382.11
2018-12-01T14:03:50.149Z,100365.27
2018-12-01T14:07:53.602Z,100360.19
2018-12-01T14:11:57.083Z,100392.39
2018-12-01T14:16:00.541Z,100394.33
2018-12-01T14:20:04.182Z,100417.23
2018-12-01T14:24:08.037Z,100410.76
2018-12-01T14:28:12.507Z,100409.13
2018-12-01T14:32:15.990Z,100411.43
2018-12-01T14:36:19.512Z,100411.09
2018-12-01T14:40:22.991Z,100424.21
2018-12-01T14:44:26.460Z,100430.28
2018-12-01T14:48:29.930Z,100437.90
2018-12-01T14:52:33.409Z,100427.05
2018-12-01T14:56:36.836Z,100432.14
2018-12-01T15:00:40.336Z,100432.13
2018-12-01T15:04:43.773Z,100430.94
2018-12-01T15:08:47.290Z,100448.08
2018-12-01T15:12:50.864Z,100446.40
2018-12-01T15:16:54.519Z,100453.10
2018-12-01T15:20:58.160Z,100458.28
2018-12-01T15:25:01.661Z,100464.60
2018-12-01T15:29:05.633Z,100465.33
2018-12-01T15:33:11.539Z,100454.83
2018-12-01T15:37:15.039Z,100456.59
2018-12-01T15:41:18.540Z,100469.80
2018-12-01T15:45:22.719Z,100470.30
2018-12-01T15:49:26.404Z,100478.71
2018-12-01T15:53:30.073Z,100485.19
2018-12-01T15:57:33.896Z,100482.44
2018-12-01T16:01:37.542Z,100478.39
2018-12-01T16:05:41.040Z,100481.70
2018-12-01T16:09:44.525Z,100484.16
2018-12-01T16:13:48.041Z,100483.73
2018-12-01T16:17:51.574Z,100470.70
2018-12-01T16:21:55.612Z,100479.27
2018-12-01T16:25:59.234Z,100482.27
2018-12-01T16:30:02.832Z,100488.92
2018-12-01T16:34:06.799Z,100483.41
2018-12-01T16:38:11.824Z,100477.42
2018-12-01T16:42:15.287Z,100480.97
2018-12-01T16:46:18.801Z,100481.13
2018-12-01T16:50:22.302Z,100485.83
2018-12-01T16:54:25.779Z,100489.37
2018-12-01T16:58:29.284Z,100483.55
2018-12-01T17:02:32.787Z,100484.52
2018-12-01T17:06:36.249Z,100482.25
2018-12-01T17:10:39.766Z,100485.02
2018-12-01T17:14:43.317Z,100482.52
2018-12-01T17:18:46.832Z,100471.08
2018-12-01T17:22:51.888Z,100468.91
2018-12-01T17:26:56.229Z,100476.17
2018-12-01T17:30:59.735Z,100465.34
2018-12-01T17:35:03.271Z,100465.10
2018-12-01T17:39:08.659Z,100454.42
2018-12-01T17:43:14.283Z,100446.06
2018-12-01T17:47:17.766Z,100450.20
2018-12-01T17:51:21.231Z,100450.20
2018-12-01T17:55:26.493Z,100436.12
2018-12-01T17:59:30.282Z,100432.56
2018-12-01T18:03:33.799Z,100438.71
2018-12-01T18:07:37.291Z,100437.97
2018-12-01T18:11:40.828Z,100435.46
2018-12-01T18:15:44.341Z,100435.38
2018-12-01T18:19:47.864Z,100441.52
2018-12-01T18:23:52.049Z,100436.59
2018-12-01T18:27:56.755Z,100431.16
2018-12-01T18:32:00.219Z,100427.27
2018-12-01T18:36:03.712Z,100430.75
2018-12-01T18:40:25.984Z,100425.09
2018-12-01T18:44:29.464Z,100434.41
2018-12-01T18:48:33.031Z,100445.50
2018-12-01T18:52:36.503Z,100441.23
2018-12-01T18:56:44.103Z,100431.33
2018-12-01T19:00:49.775Z,100439.84
2018-12-01T19:04:53.259Z,100446.63
2018-12-01T19:08:56.802Z,100441.23
2018-12-01T19:13:00.299Z,100443.41
2018-12-01T19:17:03.841Z,100440.06
2018-12-01T19:21:07.378Z,100433.67
2018-12-01T19:25:12.230Z,100435.46
2018-12-01T19:29:15.726Z,100441.61
2018-12-01T19:33:20.598Z,100432.70
2018-12-01T19:37:24.115Z,100426.94
2018-12-01T19:41:27.624Z,100425.09
2018-12-01T19:45:31.149Z,100423.09
2018-12-01T19:49:34.662Z,100427.02
2018-12-01T19:53:38.149Z,100420.08
2018-12-01T19:57:42.267Z,100417.57
2018-12-01T20:01:45.778Z,100417.81
2018-12-01T20:05:49.221Z,100421.62
2018-12-01T20:09:52.709Z,100423.25
2018-12-01T20:13:56.168Z,100417.90
2018-12-01T20:18:01.319Z,100421.70
2018-12-01T20:22:04.876Z,100421.28
2018-12-01T20:26:08.470Z,100426.88
2018-12-01T20:30:22.288Z,100423.24
2018-12-01T20:34:25.788Z,100429.30
2018-12-01T20:38:46.349Z,100428.83
2018-12-01T20:42:49.826Z,100429.80
2018-12-01T20:46:53.332Z,100427.29
2018-12-01T20:50:57.134Z,100425.36
2018-12-01T20:55:00.643Z,100413.03
2018-12-01T20:59:04.108Z,100420.72
2018-12-01T21:03:07.603Z,100416.11
2018-12-01T21:07:11.110Z,100408.91
2018-12-01T21:11:15.486Z,100411.16
2018-12-01T21:15:19.016Z,100401.05
2018-12-01T21:19:22.478Z,100397.64
2018-12-01T21:23:25.942Z,100401.27
2018-12-01T21:27:29.464Z,100399.88
2018-12-01T21:31:32.992Z,100402.56
2018-12-01T21:35:36.483Z,100381.55
2018-12-01T21:39:39.987Z,100393.26
2018-12-01T21:43:43.495Z,100400.56
2018-12-01T21:47:47.040Z,100394.80
2018-12-01T21:51:50.554Z,100391.65
2018-12-01T21:55:54.142Z,100383.20
2018-12-01T21:59:58.063Z,100370.92
2018-12-01T22:04:01.503Z,100368.57
2018-12-01T22:08:05.412Z,100377.95
2018-12-01T22:12:08.932Z,100369.93
2018-12-01T22:16:12.460Z,100371.46
2018-12-01T22:20:23.436Z,100370.08
2018-12-01T22:24:26.950Z,100359.00
2018-12-01T22:28:35.330Z,100349.54
2018-12-01T22:32:34.041Z,100345.95
2018-12-01T22:36:37.517Z,100352.95
2018-12-01T22:40:42.151Z,100359.56
2018-12-01T22:44:45.915Z,100350.73
2018-12-01T22:48:49.837Z,100346.72
2018-12-01T22:52:53.913Z,100340.30
2018-12-01T22:56:57.387Z,100331.08
2018-12-01T23:01:00.875Z,100324.52
2018-12-01T23:05:04.447Z,100323.70
2018-12-01T23:09:08.034Z,100328.59
2018-12-01T23:13:11.576Z,100327.12
2018-12-01T23:17:15.077Z,100330.94
2018-12-01T23:21:20.715Z,100318.07
2018-12-01T23:25:22.119Z,100305.37
2018-12-01T23:29:25.663Z,100301.27
2018-12-01T23:33:29.495Z,100291.06
2018-12-01T23:37:32.959Z,100278.42
2018-12-01T23:41:36.484Z,100274.41
2018-12-01T23:45:41.281Z,100272.61
2018-12-01T23:49:44.732Z,100275.23
2018-12-01T23:53:48.548Z,100275.05
2018-12-01T23:57:52.062Z,100271.17
